createdAt,value
2022-08-27T00:01:59.732Z,100192.13
2022-08-27T00:04:28.513Z,100190.78
2022-08-27T00:06:57.446Z,100172.59
2022-08-27T00:09:27.338Z,100185.94
2022-08-27T00:11:55.885Z,100085.94
2022-08-27T00:14:26.052Z,100192.25
2022-08-27T00:16:53.927Z,100193.13
2022-08-27T00:19:22.460Z,100150.09
2022-08-27T00:21:50.724Z,100187.69
2022-08-27T00:24:18.721Z,100183.97
2022-08-27T00:26:46.933Z,100172.38
2022-08-27T00:29:15.070Z,100178.78
2022-08-27T00:31:44.666Z,100188.28
2022-08-27T00:34:13.331Z,100187.41
2022-08-27T00:36:41.700Z,100132.47
2022-08-27T00:39:10.155Z,100164.28
2022-08-27T00:41:39.205Z,100197.53
2022-08-27T00:44:09.472Z,100189.38
2022-08-27T00:46:42.204Z,100192.09
2022-08-27T00:49:18.279Z,100184.34
2022-08-27T00:51:53.067Z,100184.69
2022-08-27T00:54:23.029Z,100184.97
2022-08-27T00:56:52.060Z,100175.81
2022-08-27T00:59:23.896Z,100182.97
2022-08-27T01:02:15.208Z,100182.84
2022-08-27T01:04:47.828Z,100196.94
2022-08-27T01:07:15.953Z,100198.28
2022-08-27T01:09:45.271Z,100205.22
2022-08-27T01:12:13.482Z,100194.88
2022-08-27T01:14:43.043Z,100201.41
2022-08-27T01:17:12.340Z,100210.16
2022-08-27T01:19:45.951Z,100206.94
2022-08-27T01:22:23.472Z,100195.22
2022-08-27T01:24:56.144Z,100133.97
2022-08-27T01:27:27.313Z,100111.84
2022-08-27T01:29:55.971Z,100194.09
2022-08-27T01:32:28.034Z,100213.16
2022-08-27T01:34:57.507Z,100213.63
2022-08-27T01:37:27.726Z,100215.72
2022-08-27T01:39:58.972Z,100210.41
2022-08-27T01:42:32.228Z,100221.16
2022-08-27T01:45:05.624Z,100227.72
2022-08-27T01:47:34.759Z,100212.13
2022-08-27T01:50:04.182Z,100219.78
2022-08-27T01:52:32.600Z,100217.19
2022-08-27T01:55:02.253Z,100220.78
2022-08-27T01:57:31.070Z,100219.22
2022-08-27T01:59:59.365Z,100219.16
2022-08-27T02:02:27.517Z,100226.09
2022-08-27T02:04:55.723Z,100208.34
2022-08-27T02:07:23.850Z,100220.03
2022-08-27T02:09:52.293Z,100198.69
2022-08-27T02:12:21.794Z,100171.63
2022-08-27T02:14:49.929Z,100201.31
2022-08-27T02:17:18.049Z,100225.47
2022-08-27T02:19:46.575Z,100227.56
2022-08-27T02:22:15.097Z,100218.44
2022-08-27T02:24:43.212Z,100225.81
2022-08-27T02:27:11.683Z,100123.91
2022-08-27T02:29:41.207Z,100175.44
2022-08-27T02:32:22.406Z,100231.09
2022-08-27T02:34:57.436Z,100211.81
2022-08-27T02:37:25.674Z,100229.03
2022-08-27T02:39:53.744Z,100223.09
2022-08-27T02:42:21.871Z,100230.41
2022-08-27T02:44:51.405Z,100231.66
2022-08-27T02:47:19.661Z,100208.25
2022-08-27T02:49:48.008Z,100212.75
2022-08-27T02:52:16.960Z,100244.94
2022-08-27T02:54:54.117Z,100239.72
2022-08-27T02:57:22.319Z,100207.56
2022-08-27T02:59:52.136Z,100199.91
2022-08-27T03:02:21.226Z,100236.25
2022-08-27T03:04:50.206Z,100238.78
2022-08-27T03:07:19.536Z,100205.84
2022-08-27T03:09:47.879Z,100229.22
2022-08-27T03:12:16.365Z,100230.63
2022-08-27T03:14:44.733Z,100152.63
2022-08-27T03:17:31.690Z,100230.38
2022-08-27T03:20:01.644Z,100234.63
2022-08-27T03:22:29.786Z,100228.44
2022-08-27T03:24:57.818Z,100224.09
2022-08-27T03:27:25.959Z,100218.00
2022-08-27T03:29:54.474Z,100232.34
2022-08-27T03:32:24.191Z,100229.34
2022-08-27T03:34:52.310Z,100233.84
2022-08-27T03:37:20.328Z,100240.78
2022-08-27T03:39:48.360Z,100242.28
2022-08-27T03:42:16.924Z,100177.88
2022-08-27T03:44:45.115Z,100243.47
2022-08-27T03:47:13.171Z,100233.19
2022-08-27T03:49:42.798Z,100233.00
2022-08-27T03:52:11.123Z,100237.88
2022-08-27T03:54:39.609Z,100224.81
2022-08-27T03:57:08.382Z,100232.94
2022-08-27T03:59:36.468Z,100233.78
2022-08-27T04:02:05.035Z,100233.50
2022-08-27T04:04:33.145Z,100242.78
2022-08-27T04:07:02.676Z,100239.13
2022-08-27T04:09:30.713Z,100154.66
2022-08-27T04:11:58.908Z,100239.72
2022-08-27T04:14:27.623Z,100225.13
2022-08-27T04:16:56.611Z,100231.94
2022-08-27T04:19:28.010Z,100223.50
2022-08-27T04:22:02.645Z,100241.41
2022-08-27T04:24:32.817Z,100241.75
2022-08-27T04:27:01.833Z,100223.00
2022-08-27T04:29:30.349Z,100242.94
2022-08-27T04:31:59.224Z,100231.53
2022-08-27T04:34:27.913Z,100238.69
2022-08-27T04:36:57.827Z,100228.94
2022-08-27T04:39:28.403Z,100248.34
2022-08-27T04:41:59.418Z,100146.81
2022-08-27T04:44:29.389Z,100257.13
2022-08-27T04:46:59.383Z,100238.88
2022-08-27T04:49:28.518Z,100260.88
2022-08-27T04:51:56.740Z,100219.41
2022-08-27T04:54:32.347Z,100220.06
2022-08-27T04:57:03.265Z,100254.06
2022-08-27T04:59:31.232Z,100256.50
2022-08-27T05:01:59.941Z,100262.78
2022-08-27T05:04:31.553Z,100251.50
2022-08-27T05:07:00.665Z,100225.06
2022-08-27T05:09:28.707Z,100251.19
2022-08-27T05:11:57.161Z,100249.31
2022-08-27T05:14:30.082Z,100254.91
2022-08-27T05:16:59.030Z,100243.84
2022-08-27T05:19:27.047Z,100249.56
2022-08-27T05:21:55.495Z,100258.81
2022-08-27T05:24:24.039Z,100251.75
2022-08-27T05:26:52.301Z,100256.72
2022-08-27T05:29:20.576Z,100254.31
2022-08-27T05:31:49.966Z,100261.09
2022-08-27T05:34:21.952Z,100259.09
2022-08-27T05:36:54.134Z,100257.69
2022-08-27T05:39:22.180Z,100253.03
2022-08-27T05:41:52.440Z,100269.94
2022-08-27T05:47:10.212Z,100254.47
2022-08-27T05:49:38.909Z,100270.34
2022-08-27T05:52:10.753Z,100270.06
2022-08-27T05:54:39.830Z,100202.31
2022-08-27T05:57:08.285Z,100270.59
2022-08-27T05:59:54.176Z,100270.84
2022-08-27T06:02:24.337Z,100252.63
2022-08-27T06:04:53.542Z,100276.25
2022-08-27T06:07:21.714Z,100277.50
2022-08-27T06:09:49.940Z,100276.94
2022-08-27T06:12:18.223Z,100276.25
2022-08-27T06:14:46.217Z,100279.25
2022-08-27T06:17:14.363Z,100280.69
2022-08-27T06:19:43.883Z,100277.91
2022-08-27T06:22:12.059Z,100277.91
2022-08-27T06:24:41.955Z,100281.84
2022-08-27T06:27:11.735Z,100282.38
2022-08-27T06:29:40.164Z,100279.72
2022-08-27T06:32:09.239Z,100283.00
2022-08-27T06:34:38.031Z,100281.63
2022-08-27T06:37:07.843Z,100269.59
2022-08-27T06:39:37.550Z,100250.84
2022-08-27T06:42:06.402Z,100259.84
2022-08-27T06:44:35.364Z,100277.94
2022-08-27T06:47:04.693Z,100292.44
2022-08-27T06:49:33.631Z,100294.63
2022-08-27T06:52:01.834Z,100301.59
2022-08-27T06:54:31.332Z,100301.59
2022-08-27T06:57:00.203Z,100293.53
2022-08-27T06:59:29.127Z,100295.78
2022-08-27T07:01:57.290Z,100283.69
2022-08-27T07:04:32.655Z,100309.50
2022-08-27T07:07:02.282Z,100252.28
2022-08-27T07:09:33.079Z,100295.84
2022-08-27T07:12:01.672Z,100309.34
2022-08-27T07:14:32.970Z,100306.31
2022-08-27T07:17:04.199Z,100311.56
2022-08-27T07:19:32.326Z,100308.75
2022-08-27T07:22:00.328Z,100303.31
2022-08-27T07:24:28.386Z,100283.84
2022-08-27T07:26:58.919Z,100324.38
2022-08-27T07:29:31.701Z,100320.03
2022-08-27T07:32:00.171Z,100322.25
2022-08-27T07:34:28.522Z,100325.66
2022-08-27T07:36:56.714Z,100321.22
2022-08-27T07:39:24.939Z,100316.44
2022-08-27T07:42:10.229Z,100322.06
2022-08-27T07:44:39.696Z,100320.16
2022-08-27T07:47:08.805Z,100327.72
2022-08-27T07:49:37.669Z,100334.25
2022-08-27T07:52:06.694Z,100288.53
2022-08-27T07:54:35.035Z,100334.19
2022-08-27T07:57:03.106Z,100336.25
2022-08-27T07:59:31.161Z,100324.34
2022-08-27T08:02:00.918Z,100333.81
2022-08-27T08:04:28.947Z,100279.38
2022-08-27T08:06:57.673Z,100326.19
2022-08-27T08:09:25.775Z,100319.94
2022-08-27T08:11:55.055Z,100333.19
2022-08-27T08:14:23.402Z,100335.44
2022-08-27T08:16:51.747Z,100332.47
2022-08-27T08:19:21.226Z,100324.31
2022-08-27T08:21:49.262Z,100331.09
2022-08-27T08:24:18.377Z,100337.91
2022-08-27T08:26:46.585Z,100338.38
2022-08-27T08:29:17.923Z,100335.56
2022-08-27T08:31:49.881Z,100316.03
2022-08-27T08:34:19.339Z,100341.88
2022-08-27T08:36:54.049Z,100344.41
2022-08-27T08:39:23.473Z,100343.75
2022-08-27T08:41:53.627Z,100343.19
2022-08-27T08:44:32.081Z,100345.50
2022-08-27T08:47:04.769Z,100346.94
2022-08-27T08:49:48.197Z,100350.34
2022-08-27T08:52:31.558Z,100352.59
2022-08-27T08:55:09.864Z,100350.19
2022-08-27T08:57:43.439Z,100345.25
2022-08-27T09:00:14.832Z,100330.84
2022-08-27T09:02:50.402Z,100323.75
2022-08-27T09:05:19.063Z,100354.88
2022-08-27T09:08:09.898Z,100332.88
2022-08-27T09:10:49.795Z,100345.81
2022-08-27T09:13:24.158Z,100335.59
2022-08-27T09:15:56.640Z,100309.72
2022-08-27T09:18:28.133Z,100347.84
2022-08-27T09:21:07.444Z,100346.28
2022-08-27T09:23:46.210Z,100345.72
2022-08-27T09:26:28.276Z,100348.41
2022-08-27T09:29:20.384Z,100324.88
2022-08-27T09:31:55.778Z,100342.59
2022-08-27T09:34:24.757Z,100348.25
2022-08-27T09:37:00.578Z,100311.06
2022-08-27T09:39:36.423Z,100339.75
2022-08-27T09:42:06.018Z,100325.66
2022-08-27T09:44:34.417Z,100312.63
2022-08-27T09:47:04.919Z,100342.31
2022-08-27T09:49:36.808Z,100329.59
2022-08-27T09:52:05.337Z,100318.84
2022-08-27T09:54:45.444Z,100346.44
2022-08-27T09:57:28.841Z,100307.59
2022-08-27T09:59:59.469Z,100340.97
2022-08-27T10:02:28.156Z,100336.88
2022-08-27T10:04:59.630Z,100338.72
2022-08-27T10:07:36.676Z,100340.72
2022-08-27T10:10:12.111Z,100342.47
2022-08-27T10:12:51.831Z,100347.19
2022-08-27T10:15:20.083Z,100344.81
2022-08-27T10:18:01.299Z,100330.59
2022-08-27T10:20:40.438Z,100339.66
2022-08-27T10:23:19.420Z,100338.50
2022-08-27T10:26:00.359Z,100336.66
2022-08-27T10:28:46.586Z,100336.78
2022-08-27T10:31:22.585Z,100343.44
2022-08-27T10:34:04.534Z,100345.63
2022-08-27T10:36:44.680Z,100336.59
2022-08-27T10:39:26.485Z,100330.28
2022-08-27T10:42:04.753Z,100351.47
2022-08-27T10:44:47.372Z,100359.13
2022-08-27T10:47:30.689Z,100361.38
2022-08-27T10:50:06.578Z,100364.78
2022-08-27T10:52:39.367Z,100358.00
2022-08-27T10:55:15.485Z,100367.06
2022-08-27T10:58:07.890Z,100368.00
2022-08-27T11:00:43.128Z,100357.38
2022-08-27T11:03:15.281Z,100369.28
2022-08-27T11:05:47.096Z,100344.00
2022-08-27T11:08:20.906Z,100368.78
2022-08-27T11:10:52.882Z,100362.59
2022-08-27T11:13:34.296Z,100365.06
2022-08-27T11:16:07.333Z,100352.47
2022-08-27T11:18:43.213Z,100365.69
2022-08-27T11:21:15.862Z,100340.66
2022-08-27T11:23:47.788Z,100373.91
2022-08-27T11:26:16.427Z,100346.13
2022-08-27T11:28:50.492Z,100356.19
2022-08-27T11:31:24.016Z,100366.72
2022-08-27T11:34:03.272Z,100306.53
2022-08-27T11:37:06.776Z,100362.69
2022-08-27T11:40:04.244Z,100366.63
2022-08-27T11:42:39.178Z,100340.19
2022-08-27T11:45:21.171Z,100374.53
2022-08-27T11:47:55.510Z,100370.44
2022-08-27T11:50:25.737Z,100363.75
2022-08-27T11:52:58.438Z,100383.50
2022-08-27T11:55:31.378Z,100371.41
2022-08-27T11:58:24.258Z,100365.16
2022-08-27T12:00:54.888Z,100380.91
2022-08-27T12:03:30.332Z,100373.88
2022-08-27T12:06:26.665Z,100376.84
2022-08-27T12:09:06.461Z,100376.72
2022-08-27T12:11:45.492Z,100290.50
2022-08-27T12:14:28.764Z,100385.94
2022-08-27T12:17:05.228Z,100387.16
2022-08-27T12:19:46.020Z,100395.34
2022-08-27T12:22:30.094Z,100370.94
2022-08-27T12:25:00.248Z,100395.22
2022-08-27T12:27:34.475Z,100393.97
2022-08-27T12:30:07.699Z,100392.81
2022-08-27T12:32:44.375Z,100391.72
2022-08-27T12:35:16.869Z,100399.88
2022-08-27T12:37:49.016Z,100372.81
2022-08-27T12:40:28.921Z,100400.63
2022-08-27T12:43:07.888Z,100392.97
2022-08-27T12:45:45.281Z,100393.72
2022-08-27T12:48:18.733Z,100390.91
2022-08-27T12:50:53.307Z,100392.00
2022-08-27T12:53:32.297Z,100297.53
2022-08-27T12:56:14.426Z,100384.34
2022-08-27T12:58:54.374Z,100390.81
2022-08-27T13:01:43.021Z,100337.34
2022-08-27T13:04:21.885Z,100387.34
2022-08-27T13:06:50.887Z,100390.84
2022-08-27T13:09:29.371Z,100312.94
2022-08-27T13:11:59.648Z,100386.34
2022-08-27T13:14:29.805Z,100387.59
2022-08-27T13:17:00.652Z,100394.16
2022-08-27T13:19:33.754Z,100370.03
2022-08-27T13:22:05.161Z,100382.19
2022-08-27T13:24:35.422Z,100389.56
2022-08-27T13:27:07.397Z,100300.72
2022-08-27T13:29:36.315Z,100385.38
2022-08-27T13:32:05.682Z,100393.69
2022-08-27T13:34:38.256Z,100394.88
2022-08-27T13:37:08.954Z,100391.03
2022-08-27T13:39:39.149Z,100351.81
2022-08-27T13:42:08.470Z,100394.16
2022-08-27T13:44:38.868Z,100391.94
2022-08-27T13:47:09.267Z,100389.31
2022-08-27T13:49:41.896Z,100387.44
2022-08-27T13:52:24.165Z,100367.63
2022-08-27T13:54:59.260Z,100371.22
2022-08-27T13:57:30.798Z,100265.09
2022-08-27T14:00:10.490Z,100354.13
2022-08-27T14:02:38.734Z,100381.06
2022-08-27T14:05:13.439Z,100387.84
2022-08-27T14:07:47.502Z,100352.88
2022-08-27T14:10:32.527Z,100386.97
2022-08-27T14:13:03.885Z,100382.19
2022-08-27T14:15:34.617Z,100375.28
2022-08-27T14:18:04.904Z,100384.81
2022-08-27T14:20:35.544Z,100378.84
2022-08-27T14:23:04.665Z,100377.72
2022-08-27T14:25:34.537Z,100377.00
2022-08-27T14:28:02.789Z,100372.66
2022-08-27T14:30:31.470Z,100361.28
2022-08-27T14:33:00.516Z,100383.31
2022-08-27T14:35:29.760Z,100370.97
2022-08-27T14:38:02.535Z,100339.78
2022-08-27T14:40:31.428Z,100339.06
2022-08-27T14:43:01.341Z,100331.63
2022-08-27T14:45:29.638Z,100383.34
2022-08-27T14:48:02.198Z,100339.53
2022-08-27T14:50:30.845Z,100381.09
2022-08-27T14:53:00.869Z,100349.69
2022-08-27T14:55:30.918Z,100381.38
2022-08-27T14:57:59.158Z,100377.63
2022-08-27T15:00:30.441Z,100314.53
2022-08-27T15:02:58.982Z,100357.47
2022-08-27T15:05:28.071Z,100387.53
2022-08-27T15:07:58.150Z,100334.34
2022-08-27T15:10:28.278Z,100385.56
2022-08-27T15:12:56.914Z,100378.41
2022-08-27T15:15:25.555Z,100374.94
2022-08-27T15:17:53.758Z,100374.69
2022-08-27T15:20:21.899Z,100377.69
2022-08-27T15:22:53.190Z,100371.22
2022-08-27T15:25:22.384Z,100369.47
2022-08-27T15:27:51.989Z,100365.19
2022-08-27T15:30:27.689Z,100375.91
2022-08-27T15:32:56.649Z,100376.19
2022-08-27T15:35:28.427Z,100370.72
2022-08-27T15:37:59.258Z,100373.69
2022-08-27T15:40:30.034Z,100369.75
2022-08-27T15:43:03.761Z,100376.06
2022-08-27T15:45:33.513Z,100372.22
2022-08-27T15:48:02.411Z,100366.28
2022-08-27T15:50:31.916Z,100352.94
2022-08-27T15:53:02.711Z,100336.59
2022-08-27T15:55:33.565Z,100380.28
2022-08-27T15:58:03.505Z,100386.22
2022-08-27T16:00:34.417Z,100347.75
2022-08-27T16:03:04.721Z,100381.03
2022-08-27T16:05:35.064Z,100381.53
2022-08-27T16:08:03.837Z,100383.88
2022-08-27T16:10:32.405Z,100375.31
2022-08-27T16:13:00.479Z,100382.78
2022-08-27T16:15:30.669Z,100385.63
2022-08-27T16:17:59.749Z,100376.81
2022-08-27T16:20:28.731Z,100378.06
2022-08-27T16:22:56.968Z,100386.63
2022-08-27T16:25:25.349Z,100378.81
2022-08-27T16:27:53.853Z,100382.16
2022-08-27T16:30:23.030Z,100376.84
2022-08-27T16:32:53.247Z,100327.84
2022-08-27T16:35:21.536Z,100371.13
2022-08-27T16:37:49.640Z,100368.03
2022-08-27T16:40:18.193Z,100367.28
2022-08-27T16:42:49.939Z,100313.34
2022-08-27T16:45:21.856Z,100339.81
2022-08-27T16:48:08.241Z,100364.81
2022-08-27T16:50:37.985Z,100323.25
2022-08-27T16:53:09.205Z,100340.91
2022-08-27T16:55:39.106Z,100363.19
2022-08-27T16:58:10.423Z,100366.53
2022-08-27T17:00:39.411Z,100370.66
2022-08-27T17:03:09.230Z,100326.59
2022-08-27T17:05:38.807Z,100372.50
2022-08-27T17:08:06.978Z,100378.69
2022-08-27T17:10:46.382Z,100362.84
2022-08-27T17:13:16.675Z,100127.59
2022-08-27T17:15:48.729Z,100376.81
2022-08-27T17:18:20.976Z,100385.75
2022-08-27T17:20:50.378Z,100382.16
2022-08-27T17:23:23.050Z,100389.94
2022-08-27T17:25:51.131Z,100393.03
2022-08-27T17:28:19.665Z,100388.34
2022-08-27T17:30:48.088Z,100394.66
2022-08-27T17:33:21.416Z,100395.28
2022-08-27T17:35:50.762Z,100393.91
2022-08-27T17:38:18.833Z,100368.53
2022-08-27T17:40:47.385Z,100391.06
2022-08-27T17:43:21.273Z,100390.69
2022-08-27T17:45:50.058Z,100230.78
2022-08-27T17:48:22.681Z,100393.06
2022-08-27T17:50:55.536Z,100310.72
2022-08-27T17:53:23.952Z,100398.75
2022-08-27T17:55:52.190Z,100379.19
2022-08-27T17:58:20.666Z,100405.19
2022-08-27T18:00:48.817Z,100402.72
2022-08-27T18:03:21.118Z,100404.69
2022-08-27T18:05:50.102Z,100411.59
2022-08-27T18:08:20.585Z,100397.75
2022-08-27T18:10:49.680Z,100309.06
2022-08-27T18:13:18.930Z,100391.41
2022-08-27T18:15:48.516Z,100415.88
2022-08-27T18:18:16.817Z,100424.47
2022-08-27T18:20:45.193Z,100422.97
2022-08-27T18:23:13.740Z,100422.09
2022-08-27T18:25:45.541Z,100422.94
2022-08-27T18:28:15.080Z,100381.84
2022-08-27T18:30:44.742Z,100423.81
2022-08-27T18:33:13.758Z,100433.06
2022-08-27T18:35:42.846Z,100433.06
2022-08-27T18:38:10.987Z,100435.66
2022-08-27T18:40:41.937Z,100445.38
2022-08-27T18:43:12.024Z,100410.41
2022-08-27T18:45:40.174Z,100425.56
2022-08-27T18:48:14.672Z,100436.19
2022-08-27T18:50:46.424Z,100441.19
2022-08-27T18:53:16.721Z,100448.34
2022-08-27T18:55:45.485Z,100430.25
2022-08-27T18:58:15.291Z,100443.00
2022-08-27T19:00:46.463Z,100444.09
2022-08-27T19:03:18.861Z,100448.28
2022-08-27T19:05:48.361Z,100438.22
2022-08-27T19:08:23.316Z,100374.22
2022-08-27T19:10:51.461Z,100448.75
2022-08-27T19:13:21.205Z,100442.22
2022-08-27T19:15:57.677Z,100450.72
2022-08-27T19:18:28.666Z,100453.72
2022-08-27T19:20:57.296Z,100455.31
2022-08-27T19:23:26.371Z,100454.19
2022-08-27T19:25:55.246Z,100419.81
2022-08-27T19:28:29.613Z,100451.72
2022-08-27T19:30:58.907Z,100445.31
2022-08-27T19:33:26.961Z,100435.19
2022-08-27T19:35:55.023Z,100443.09
2022-08-27T19:38:24.734Z,100452.44
2022-08-27T19:40:52.957Z,100459.72
2022-08-27T19:43:21.000Z,100467.22
2022-08-27T19:45:50.784Z,100438.22
2022-08-27T19:48:18.922Z,100422.91
2022-08-27T19:50:46.912Z,100411.50
2022-08-27T19:53:18.943Z,100460.44
2022-08-27T19:55:47.261Z,100460.78
2022-08-27T19:58:16.654Z,100461.34
2022-08-27T20:00:46.370Z,100462.22
2022-08-27T20:03:15.909Z,100425.00
2022-08-27T20:05:44.563Z,100470.88
2022-08-27T20:08:13.100Z,100468.81
2022-08-27T20:10:41.773Z,100464.66
2022-08-27T20:13:12.425Z,100477.66
2022-08-27T20:15:40.729Z,100447.47
2022-08-27T20:18:09.377Z,100478.94
2022-08-27T20:20:39.668Z,100315.63
2022-08-27T20:23:08.407Z,100474.97
2022-08-27T20:25:37.612Z,100461.44
2022-08-27T20:28:37.353Z,100488.38
2022-08-27T20:30:57.452Z,100376.00
2022-08-27T20:33:27.221Z,100492.09
2022-08-27T20:35:57.822Z,100465.63
2022-08-27T20:38:26.204Z,100473.66
2022-08-27T20:40:54.279Z,100475.41
2022-08-27T20:43:22.494Z,100496.25
2022-08-27T20:45:50.835Z,100497.31
2022-08-27T20:48:19.051Z,100479.44
2022-08-27T20:50:47.730Z,100479.91
2022-08-27T20:53:17.197Z,100512.88
2022-08-27T20:55:45.657Z,100512.69
2022-08-27T20:58:31.385Z,100484.97
2022-08-27T21:01:00.380Z,100420.25
2022-08-27T21:03:28.706Z,100492.47
2022-08-27T21:05:56.744Z,100502.91
2022-08-27T21:08:26.193Z,100510.19
2022-08-27T21:10:57.821Z,100511.59
2022-08-27T21:13:28.005Z,100509.47
2022-08-27T21:15:56.466Z,100512.34
2022-08-27T21:18:29.952Z,100524.94
2022-08-27T21:20:58.656Z,100524.31
2022-08-27T21:23:29.160Z,100517.06
2022-08-27T21:25:57.424Z,100516.75
2022-08-27T21:28:25.551Z,100494.47
2022-08-27T21:30:53.580Z,100515.09
2022-08-27T21:33:21.852Z,100519.47
2022-08-27T21:35:49.899Z,100526.75
2022-08-27T21:38:18.041Z,100528.97
2022-08-27T21:40:47.608Z,100525.22
2022-08-27T21:43:15.689Z,100526.13
2022-08-27T21:45:43.950Z,100527.06
2022-08-27T21:48:12.661Z,100495.84
2022-08-27T21:50:40.700Z,100516.59
2022-08-27T21:53:08.719Z,100523.78
2022-08-27T21:55:36.699Z,100522.19
2022-08-27T21:58:06.216Z,100538.25
2022-08-27T22:00:42.099Z,100426.66
2022-08-27T22:03:13.868Z,100534.97
2022-08-27T22:05:43.590Z,100540.44
2022-08-27T22:08:13.468Z,100540.34
2022-08-27T22:10:45.659Z,100540.38
2022-08-27T22:13:16.481Z,100532.00
2022-08-27T22:15:44.673Z,100546.88
2022-08-27T22:18:13.674Z,100396.59
2022-08-27T22:20:42.136Z,100415.94
2022-08-27T22:23:13.158Z,100550.34
2022-08-27T22:25:42.634Z,100533.09
2022-08-27T22:28:12.065Z,100553.19
2022-08-27T22:30:42.408Z,100559.47
2022-08-27T22:33:10.486Z,100554.06
2022-08-27T22:35:38.885Z,100552.16
2022-08-27T22:38:07.460Z,100454.56
2022-08-27T22:40:37.390Z,100557.50
2022-08-27T22:43:05.810Z,100528.00
2022-08-27T22:45:34.600Z,100558.97
2022-08-27T22:48:04.819Z,100451.97
2022-08-27T22:50:32.692Z,100556.09
2022-08-27T22:53:00.661Z,100546.50
2022-08-27T22:55:30.559Z,100556.75
2022-08-27T22:57:58.574Z,100557.06
2022-08-27T23:00:29.125Z,100560.22
2022-08-27T23:02:57.925Z,100543.44
2022-08-27T23:05:28.488Z,100559.66
2022-08-27T23:08:09.841Z,100559.28
2022-08-27T23:10:38.571Z,100486.59
2022-08-27T23:13:07.983Z,100536.25
2022-08-27T23:15:36.011Z,100527.84
2022-08-27T23:18:04.119Z,100546.13
2022-08-27T23:20:34.215Z,100426.47
2022-08-27T23:23:02.717Z,100552.53
2022-08-27T23:25:49.005Z,100558.34
2022-08-27T23:28:17.633Z,100556.03
2022-08-27T23:30:47.005Z,100554.47
2022-08-27T23:33:15.952Z,100552.38
2022-08-27T23:35:48.194Z,100512.69
2022-08-27T23:38:17.143Z,100548.69
2022-08-27T23:40:46.243Z,100547.34
2022-08-27T23:43:14.493Z,100530.31
2022-08-27T23:45:43.239Z,100511.06
2022-08-27T23:48:12.151Z,100543.84
2022-08-27T23:50:40.863Z,100543.94
2022-08-27T23:53:10.977Z,100510.94
2022-08-27T23:55:40.400Z,100541.31
2022-08-27T23:58:09.343Z,100505.09
